Portada
METAR-TAF:

METAR-TAF

Aeroports :

Ulan-Udè, Rússia

latitud: 51-50N, longitud: 107-36E, altitud: 510 m

Observació

L'informe es va fer fa 16 minuts, a les 09:00 UTC
Vent 2 kt del Nord-Oest
Temperatura 6°C
Humitat 49%
Pressió 1016 hPa
Visibilitat: 9000 m

METAR: UIUU 240900Z 32001MPS 9000 NSC 06/M04 Q1016 R26/CLRD60 NOSIG RMK QFE718/0957

Hora: 17:16 (09:16 UTC)

Pronòstic

L'informe es va fer fa 1 hora i 16 minuts, a les 08:00 UTC
Pronòstic vàlid del 24 a les 09 UTC al 25 a les 09 UTC
Vent 6 kt del Est amb ràfegues de 16 kt
Visibilitat 10 km o més

TAF: UIUU 240800Z 2409/2509 10003G08MPS 9999 NSC

Observacions i pronòstics meteorològics de més de 4000 aeroports (METAR i TAF).

Les estacions disponibles són els punts grocs i vermells al mapa.

Posi el ratolí al punt desitjat per veure el nom de l'estació.

Feu clic per veure les observacions i els pronòstics meteorològics.

Per canviar el mapa: feu clic els botons verds amb una creu de color negre per apropar; al botó verd amb un guió per allunyar la imatge; o en les fletxes verdes per a mapes adjacents.


METAR-TAF: